Kenai Fjords National Park, AK

8:47 PM AKST on November 27, 2014 (GMT -0900)
Kenai | Change Station
CLOSE
Current Station
Personal Weather Station
Location: Kenai, AK
Elevation: 95 ft
Nearby Weather Stations

Elev 95 ft 60.58 °N, 151.31 °W | Updated 4 seconds ago

Clear
Clear
14.9 °F
Feels Like 15 °F
N
0.0
Wind Variable Wind from East
Gusts 1.2 mph

Today
High -- | Low -- °F
--% Chance of Precip.
Yesterday
High -- | Low -- °F
Precip. -- in
9:36 AM 4:08 PM
Waxing Crescent, 37% visible
Pressure 30.21 in
Visibility 10.0 miles
Clouds Clear
Windchill 15 °F
Dew Point 13 °F
Humidity 93%
Rainfall 0.00 in
Snow Depth Not available.
UV 0.0 out of 12
Pollen Not available.
Air Quality Not available.
Flu Activity Not available.
METAR PAEN 280453Z 00000KT 10SM CLR M11/M12 A3019 RMK AO2 SLP228 I1000 T11061117

More Conditions Fewer Conditions

Pressure 30.21 in
Visibility 10.0 miles
Clouds Clear
Windchill 15 °F
Dew Point 13 °F
Humidity 93%
Rainfall 0.00 in
Snow Depth Not available.
UV 0.0 out of 12
Pollen Not available.
Air Quality Not available.
Flu Activity Not available.
METAR PAEN 280453Z 00000KT 10SM CLR M11/M12 A3019 RMK AO2 SLP228 I1000 T11061117

More Conditions Fewer Conditions

10-Day Weather Forecast

Almanac

Astronomy

Nov. 27, 2014 Rise Set
Actual Time
Civil Twilight
Nautical Twilight
Astronomical Twilight
Moon
Length of Visible Light
Length of Day
Tomorrow will be .
, % of the Moon is Illuminated

Today's Extremes

State Highs State Lows

Community

WunderPhotos

Upload Photos

1,774,195 photos uploaded!

WunderBlogs® & News

Nearby

Air Quality

  Air Quality AQ Index Pollutant
Not available.

Snow Depth

Station Depth Elevation

Earthquake Activity

City Distance Mag. Time & Date
Minimum magnitude displayed is 2.5.

Coastal Water Temperatures

Place Temperature

Nearby Weather Stations